createdAt,value
2022-09-25T00:01:19.233Z,99641.69
2022-09-25T00:03:47.316Z,99636.50
2022-09-25T00:06:16.646Z,99638.16
2022-09-25T00:08:44.297Z,99627.50
2022-09-25T00:11:16.022Z,99630.50
2022-09-25T00:13:44.512Z,99626.69
2022-09-25T00:16:15.042Z,99624.75
2022-09-25T00:19:01.624Z,99627.94
2022-09-25T00:21:31.418Z,99622.53
2022-09-25T00:24:00.569Z,99620.94
2022-09-25T00:26:29.742Z,99618.22
2022-09-25T00:29:00.542Z,99613.03
2022-09-25T00:31:29.447Z,99615.97
2022-09-25T00:33:58.883Z,99612.78
2022-09-25T00:36:26.583Z,99618.53
2022-09-25T00:38:54.360Z,99613.59
2022-09-25T00:41:23.887Z,99612.41
2022-09-25T00:43:54.724Z,99608.38
2022-09-25T00:46:28.047Z,99611.44
2022-09-25T00:49:00.759Z,99608.66
2022-09-25T00:51:34.875Z,99610.53
2022-09-25T00:54:04.489Z,99608.69
2022-09-25T00:56:37.023Z,99603.50
2022-09-25T00:59:04.691Z,99603.25
2022-09-25T01:01:32.418Z,99606.50
2022-09-25T01:03:59.924Z,99598.84
2022-09-25T01:06:27.604Z,99607.28
2022-09-25T01:08:55.850Z,99604.87
2022-09-25T01:11:23.186Z,99605.97
2022-09-25T01:13:54.356Z,99598.88
2022-09-25T01:16:31.131Z,99596.16
2022-09-25T01:19:08.583Z,99593.94
2022-09-25T01:21:51.658Z,99598.34
2022-09-25T01:24:45.059Z,99598.31
2022-09-25T01:27:30.883Z,99596.13
2022-09-25T01:30:08.582Z,99596.37
2022-09-25T01:32:56.531Z,99593.38
2022-09-25T01:35:42.557Z,99607.78
2022-09-25T01:38:23.811Z,99604.25
2022-09-25T01:41:01.981Z,99604.03
2022-09-25T01:43:37.077Z,99597.50
2022-09-25T01:46:13.735Z,99599.94
2022-09-25T01:48:43.073Z,99599.03
2022-09-25T01:51:22.299Z,99602.13
2022-09-25T01:53:56.820Z,99598.84
2022-09-25T01:56:34.131Z,99597.47
2022-09-25T01:59:16.601Z,99589.59
2022-09-25T02:01:45.132Z,99586.69
2022-09-25T02:04:24.042Z,99589.81
2022-09-25T02:06:51.970Z,99584.69
2022-09-25T02:09:26.423Z,99587.09
2022-09-25T02:11:58.083Z,99581.94
2022-09-25T02:14:44.867Z,99577.28
2022-09-25T02:17:35.495Z,99586.31
2022-09-25T02:20:22.316Z,99588.22
2022-09-25T02:22:52.713Z,99586.59
2022-09-25T02:25:42.113Z,99592.88
2022-09-25T02:28:10.042Z,99596.87
2022-09-25T02:30:37.758Z,99598.59
2022-09-25T02:33:05.241Z,99601.06
2022-09-25T02:35:33.000Z,99597.78
2022-09-25T02:38:00.805Z,99589.87
2022-09-25T02:40:36.747Z,99587.94
2022-09-25T02:43:12.975Z,99586.03
2022-09-25T02:45:55.630Z,99590.16
2022-09-25T02:48:41.521Z,99589.06
2022-09-25T02:51:17.664Z,99584.97
2022-09-25T02:54:01.171Z,99590.63
2022-09-25T02:56:28.404Z,99577.84
2022-09-25T02:58:58.500Z,99581.28
2022-09-25T03:01:27.318Z,99576.94
2022-09-25T03:03:57.390Z,99578.38
2022-09-25T03:06:25.990Z,99581.41
2022-09-25T03:08:56.818Z,99581.16
2022-09-25T03:11:26.940Z,99571.06
2022-09-25T03:14:02.551Z,99566.63
2022-09-25T03:16:46.604Z,99569.31
2022-09-25T03:19:14.817Z,99576.53
2022-09-25T03:21:42.540Z,99566.66
2022-09-25T03:24:10.112Z,99575.88
2022-09-25T03:26:37.810Z,99565.56
2022-09-25T03:29:06.172Z,99562.84
2022-09-25T03:31:34.196Z,99560.72
2022-09-25T03:34:01.846Z,99566.44
2022-09-25T03:36:30.308Z,99560.91
2022-09-25T03:38:59.133Z,99558.81
2022-09-25T03:41:29.332Z,99562.56
2022-09-25T03:43:57.298Z,99563.97
2022-09-25T03:46:26.983Z,99568.63
2022-09-25T03:48:54.977Z,99574.34
2022-09-25T03:51:23.481Z,99575.72
2022-09-25T03:53:51.259Z,99589.59
2022-09-25T03:56:21.510Z,99590.41
2022-09-25T03:58:50.162Z,99589.87
2022-09-25T04:01:19.510Z,99588.75
2022-09-25T04:03:47.791Z,99592.88
2022-09-25T04:06:18.408Z,99591.75
2022-09-25T04:08:47.538Z,99586.81
2022-09-25T04:11:17.745Z,99589.78
2022-09-25T04:13:45.355Z,99584.69
2022-09-25T04:16:14.077Z,99587.09
2022-09-25T04:18:42.943Z,99578.66
2022-09-25T04:21:12.456Z,99577.75
2022-09-25T04:23:40.349Z,99573.53
2022-09-25T04:26:09.322Z,99569.47
2022-09-25T04:28:37.111Z,99576.25
2022-09-25T04:31:04.685Z,99570.50
2022-09-25T04:33:48.189Z,99566.72
2022-09-25T04:36:16.844Z,99573.50
2022-09-25T04:38:44.721Z,99571.63
2022-09-25T04:41:12.128Z,99565.06
2022-09-25T04:43:41.806Z,99565.34
2022-09-25T04:46:15.552Z,99572.97
2022-09-25T04:48:47.673Z,99572.97
2022-09-25T04:51:15.354Z,99575.94
2022-09-25T04:53:43.149Z,99583.63
2022-09-25T04:56:15.865Z,99582.78
2022-09-25T04:58:46.323Z,99584.16
2022-09-25T05:01:13.865Z,99585.81
2022-09-25T05:03:41.425Z,99587.97
2022-09-25T05:06:09.082Z,99587.38
2022-09-25T05:08:36.488Z,99582.72
2022-09-25T05:11:04.098Z,99581.44
2022-09-25T05:13:31.794Z,99577.06
2022-09-25T05:15:59.294Z,99579.53
2022-09-25T05:18:26.883Z,99577.06
2022-09-25T05:20:54.551Z,99576.50
2022-09-25T05:23:21.955Z,99577.31
2022-09-25T05:25:58.344Z,99581.37
2022-09-25T05:28:26.008Z,99573.78
2022-09-25T05:30:53.923Z,99584.63
2022-09-25T05:33:21.417Z,99583.78
2022-09-25T05:35:49.057Z,99576.81
2022-09-25T05:38:16.430Z,99578.12
2022-09-25T05:40:43.892Z,99582.22
2022-09-25T05:43:12.578Z,99591.44
2022-09-25T05:45:39.935Z,99593.06
2022-09-25T05:48:08.296Z,99597.72
2022-09-25T05:50:36.196Z,99599.34
2022-09-25T05:53:05.317Z,99597.50
2022-09-25T05:55:32.758Z,99603.78
2022-09-25T05:58:02.766Z,99596.44
2022-09-25T06:00:32.986Z,99593.44
2022-09-25T06:03:01.634Z,99595.88
2022-09-25T06:05:29.215Z,99599.84
2022-09-25T06:07:57.609Z,99600.09
2022-09-25T06:10:26.820Z,99607.78
2022-09-25T06:13:00.801Z,99618.97
2022-09-25T06:15:29.858Z,99618.94
2022-09-25T06:17:57.296Z,99619.16
2022-09-25T06:20:25.111Z,99620.53
2022-09-25T06:22:56.609Z,99625.09
2022-09-25T06:25:26.457Z,99620.72
2022-09-25T06:27:54.957Z,99615.81
2022-09-25T06:30:24.385Z,99621.13
2022-09-25T06:32:57.596Z,99620.28
2022-09-25T06:35:25.890Z,99619.75
2022-09-25T06:37:57.112Z,99619.44
2022-09-25T06:40:28.212Z,99615.06
2022-09-25T06:42:59.911Z,99625.72
2022-09-25T06:45:29.477Z,99631.69
2022-09-25T06:48:14.058Z,99628.84
2022-09-25T06:50:43.427Z,99628.25
2022-09-25T06:53:11.438Z,99623.22
2022-09-25T06:55:38.957Z,99627.78
2022-09-25T06:58:08.393Z,99625.19
2022-09-25T07:00:35.842Z,99620.78
2022-09-25T07:03:21.679Z,99633.47
2022-09-25T07:05:49.502Z,99632.63
2022-09-25T07:08:20.970Z,99629.34
2022-09-25T07:10:52.715Z,99617.81
2022-09-25T07:13:24.813Z,99614.81
2022-09-25T07:15:53.650Z,99626.91
2022-09-25T07:18:22.186Z,99615.41
2022-09-25T07:20:50.291Z,99610.63
2022-09-25T07:23:19.336Z,99617.97
2022-09-25T07:25:47.375Z,99621.56
2022-09-25T07:28:15.900Z,99625.13
2022-09-25T07:30:43.825Z,99626.94
2022-09-25T07:33:11.769Z,99617.50
2022-09-25T07:35:39.852Z,99621.19
2022-09-25T07:38:07.465Z,99618.47
2022-09-25T07:40:35.372Z,99619.41
2022-09-25T07:43:03.484Z,99613.44
2022-09-25T07:45:31.508Z,99614.53
2022-09-25T07:48:03.148Z,99612.31
2022-09-25T07:50:32.125Z,99611.66
2022-09-25T07:52:59.703Z,99595.69
2022-09-25T07:55:28.622Z,99592.25
2022-09-25T07:57:57.087Z,99593.53
2022-09-25T08:00:24.520Z,99587.13
2022-09-25T08:02:59.193Z,99598.72
2022-09-25T08:05:27.184Z,99594.19
2022-09-25T08:07:55.032Z,99589.59
2022-09-25T08:10:22.523Z,99590.88
2022-09-25T08:12:50.024Z,99586.91
2022-09-25T08:15:17.877Z,99586.66
2022-09-25T08:17:45.242Z,99594.12
2022-09-25T08:20:12.941Z,99591.66
2022-09-25T08:22:40.565Z,99589.50
2022-09-25T08:25:08.098Z,99596.25
2022-09-25T08:27:45.605Z,99595.44
2022-09-25T08:30:13.925Z,99613.13
2022-09-25T08:32:41.306Z,99606.69
2022-09-25T08:35:09.079Z,99607.19
2022-09-25T08:37:41.645Z,99602.81
2022-09-25T08:40:20.470Z,99607.19
2022-09-25T08:42:50.025Z,99612.47
2022-09-25T08:45:46.299Z,99605.28
2022-09-25T08:48:42.127Z,99607.16
2022-09-25T08:51:09.608Z,99593.34
2022-09-25T08:53:39.160Z,99598.13
2022-09-25T08:56:17.714Z,99598.09
2022-09-25T08:59:01.751Z,99600.06
2022-09-25T09:01:36.302Z,99599.88
2022-09-25T09:04:32.512Z,99597.03
2022-09-25T09:07:25.607Z,99605.00
2022-09-25T09:10:09.316Z,99605.56
2022-09-25T09:12:40.977Z,99606.59
2022-09-25T09:15:32.391Z,99615.56
2022-09-25T09:18:05.407Z,99618.19
2022-09-25T09:20:41.714Z,99612.59
2022-09-25T09:23:15.561Z,99606.09
2022-09-25T09:26:02.228Z,99611.25
2022-09-25T09:28:44.409Z,99616.69
2022-09-25T09:31:16.925Z,99613.81
2022-09-25T09:33:49.421Z,99611.91
2022-09-25T09:36:32.079Z,99607.09
2022-09-25T09:39:25.958Z,99613.41
2022-09-25T09:41:59.328Z,99614.00
2022-09-25T09:44:50.121Z,99611.84
2022-09-25T09:47:47.205Z,99611.72
2022-09-25T09:50:30.343Z,99607.97
2022-09-25T09:53:08.779Z,99615.25
2022-09-25T09:55:58.661Z,99608.22
2022-09-25T09:58:45.134Z,99597.31
2022-09-25T10:01:29.407Z,99606.28
2022-09-25T10:04:07.194Z,99592.03
2022-09-25T10:06:38.553Z,99601.25
2022-09-25T10:09:08.327Z,99605.84
2022-09-25T10:11:37.493Z,99604.06
2022-09-25T10:14:05.074Z,99612.28
2022-09-25T10:16:33.124Z,99606.94
2022-09-25T10:19:11.640Z,99606.59
2022-09-25T10:21:47.278Z,99607.09
2022-09-25T10:25:02.958Z,99611.53
2022-09-25T10:27:36.568Z,99611.66
2022-09-25T10:30:07.194Z,99609.03
2022-09-25T10:33:08.696Z,99610.06
2022-09-25T10:35:39.036Z,99611.19
2022-09-25T10:38:19.312Z,99607.75
2022-09-25T10:40:57.948Z,99595.19
2022-09-25T10:43:25.669Z,99598.19
2022-09-25T10:46:15.382Z,99603.50
2022-09-25T10:49:01.409Z,99597.19
2022-09-25T10:51:29.393Z,99586.66
2022-09-25T10:54:12.164Z,99591.06
2022-09-25T10:56:39.879Z,99581.22
2022-09-25T10:59:18.591Z,99587.63
2022-09-25T11:01:47.497Z,99586.97
2022-09-25T11:04:30.147Z,99578.34
2022-09-25T11:07:04.793Z,99577.03
2022-09-25T11:09:33.700Z,99565.53
2022-09-25T11:12:25.102Z,99559.25
2022-09-25T11:15:04.917Z,99570.50
2022-09-25T11:17:33.499Z,99568.59
2022-09-25T11:20:21.557Z,99567.19
2022-09-25T11:22:52.391Z,99569.22
2022-09-25T11:25:33.247Z,99570.09
2022-09-25T11:28:28.962Z,99575.38
2022-09-25T11:31:20.151Z,99568.06
2022-09-25T11:34:10.933Z,99576.78
2022-09-25T11:36:46.304Z,99588.78
2022-09-25T11:39:40.930Z,99567.66
2022-09-25T11:42:16.083Z,99574.09
2022-09-25T11:44:43.349Z,99576.63
2022-09-25T11:47:20.044Z,99570.81
2022-09-25T11:49:53.266Z,99577.62
2022-09-25T11:52:24.006Z,99574.03
2022-09-25T11:55:12.883Z,99567.56
2022-09-25T11:58:09.923Z,99563.31
2022-09-25T12:00:55.680Z,99560.34
2022-09-25T12:03:57.028Z,99565.31
2022-09-25T12:06:27.129Z,99573.25
2022-09-25T12:09:12.180Z,99566.47
2022-09-25T12:11:43.282Z,99553.34
2022-09-25T12:14:35.520Z,99554.22
2022-09-25T12:17:28.033Z,99558.41
2022-09-25T12:20:13.978Z,99556.66
2022-09-25T12:23:19.803Z,99560.03
2022-09-25T12:25:59.906Z,99556.78
2022-09-25T12:29:04.931Z,99561.50
2022-09-25T12:32:06.527Z,99561.34
2022-09-25T12:34:40.392Z,99551.94
2022-09-25T12:37:08.102Z,99550.56
2022-09-25T12:39:41.322Z,99553.94
2022-09-25T12:42:17.503Z,99545.88
2022-09-25T12:45:01.989Z,99541.78
2022-09-25T12:47:50.994Z,99545.41
2022-09-25T12:50:28.994Z,99545.25
2022-09-25T12:53:02.767Z,99537.25
2022-09-25T12:55:37.658Z,99537.31
2022-09-25T12:58:10.229Z,99541.81
2022-09-25T13:00:42.185Z,99539.62
2022-09-25T13:03:23.317Z,99537.34
2022-09-25T13:06:14.759Z,99530.09
2022-09-25T13:09:02.723Z,99531.38
2022-09-25T13:11:51.889Z,99532.22
2022-09-25T13:14:56.644Z,99526.56
2022-09-25T13:17:24.243Z,99533.81
2022-09-25T13:19:52.054Z,99540.81
2022-09-25T13:22:24.942Z,99544.25
2022-09-25T13:25:05.397Z,99538.25
2022-09-25T13:27:42.785Z,99543.31
2022-09-25T13:30:21.849Z,99528.97
2022-09-25T13:32:51.834Z,99539.00
2022-09-25T13:35:21.308Z,99535.37
2022-09-25T13:37:50.842Z,99543.22
2022-09-25T13:40:42.412Z,99539.00
2022-09-25T13:43:27.977Z,99541.94
2022-09-25T13:46:21.716Z,99532.09
2022-09-25T13:48:52.407Z,99527.75
2022-09-25T13:51:22.712Z,99529.16
2022-09-25T13:54:04.967Z,99526.06
2022-09-25T13:56:41.548Z,99530.34
2022-09-25T13:59:15.952Z,99526.22
2022-09-25T14:01:47.690Z,99522.06
2022-09-25T14:04:15.286Z,99529.66
2022-09-25T14:06:44.827Z,99522.19
2022-09-25T14:09:15.266Z,99529.28
2022-09-25T14:11:49.625Z,99530.81
2022-09-25T14:14:52.569Z,99525.31
2022-09-25T14:17:22.099Z,99527.87
2022-09-25T14:19:52.706Z,99525.81
2022-09-25T14:22:46.460Z,99522.72
2022-09-25T14:25:27.395Z,99515.69
2022-09-25T14:27:55.595Z,99512.84
2022-09-25T14:30:28.945Z,99506.50
2022-09-25T14:33:01.084Z,99506.53
2022-09-25T14:35:58.435Z,99504.13
2022-09-25T14:38:50.244Z,99508.09
2022-09-25T14:41:43.977Z,99507.13
2022-09-25T14:44:24.003Z,99506.84
2022-09-25T14:46:52.597Z,99500.81
2022-09-25T14:49:27.327Z,99504.47
2022-09-25T14:51:58.610Z,99502.72
2022-09-25T14:54:29.429Z,99508.63
2022-09-25T14:56:58.019Z,99499.09
2022-09-25T14:59:33.557Z,99504.41
2022-09-25T15:02:02.907Z,99508.72
2022-09-25T15:04:32.665Z,99508.25
2022-09-25T15:07:13.284Z,99495.78
2022-09-25T15:09:47.524Z,99496.09
2022-09-25T15:12:17.885Z,99486.47
2022-09-25T15:15:07.797Z,99497.31
2022-09-25T15:17:49.450Z,99507.75
2022-09-25T15:20:20.896Z,99496.78
2022-09-25T15:23:11.269Z,99492.81
2022-09-25T15:25:42.625Z,99485.38
2022-09-25T15:28:20.242Z,99486.19
2022-09-25T15:31:01.580Z,99477.78
2022-09-25T15:33:32.170Z,99477.91
2022-09-25T15:36:03.547Z,99472.31
2022-09-25T15:38:35.883Z,99475.19
2022-09-25T15:41:08.892Z,99479.97
2022-09-25T15:43:36.216Z,99478.31
2022-09-25T15:46:10.269Z,99475.22
2022-09-25T15:48:52.429Z,99474.13
2022-09-25T15:51:21.545Z,99476.72
2022-09-25T15:53:53.994Z,99468.13
2022-09-25T15:56:24.564Z,99469.16
2022-09-25T15:58:55.892Z,99465.63
2022-09-25T16:01:45.188Z,99458.38
2022-09-25T16:04:58.698Z,99463.09
2022-09-25T16:07:30.221Z,99456.50
2022-09-25T16:10:01.222Z,99457.97
2022-09-25T16:12:46.064Z,99455.03
2022-09-25T16:15:29.977Z,99467.94
2022-09-25T16:18:02.906Z,99452.31
2022-09-25T16:20:36.612Z,99452.81
2022-09-25T16:23:06.557Z,99456.94
2022-09-25T16:25:36.642Z,99449.31
2022-09-25T16:28:33.757Z,99441.31
2022-09-25T16:31:06.630Z,99440.62
2022-09-25T16:33:39.958Z,99444.78
2022-09-25T16:36:17.640Z,99447.88
2022-09-25T16:39:04.484Z,99446.63
2022-09-25T16:41:32.929Z,99437.31
2022-09-25T16:44:07.924Z,99439.22
2022-09-25T16:46:35.572Z,99436.72
2022-09-25T16:49:04.836Z,99430.22
2022-09-25T16:51:32.869Z,99427.81
2022-09-25T16:54:00.966Z,99423.69
2022-09-25T16:56:32.002Z,99423.06
2022-09-25T16:58:59.916Z,99421.75
2022-09-25T17:01:28.437Z,99418.72
2022-09-25T17:03:59.926Z,99414.22
2022-09-25T17:06:30.393Z,99404.22
2022-09-25T17:08:59.070Z,99411.59
2022-09-25T17:11:26.656Z,99410.31
2022-09-25T17:13:54.540Z,99414.66
2022-09-25T17:16:21.950Z,99403.88
2022-09-25T17:18:49.436Z,99400.28
2022-09-25T17:21:17.176Z,99394.97
2022-09-25T17:23:44.596Z,99395.72
2022-09-25T17:26:18.438Z,99403.91
2022-09-25T17:28:46.117Z,99399.84
2022-09-25T17:31:20.165Z,99389.59
2022-09-25T17:33:52.221Z,99389.69
2022-09-25T17:36:19.629Z,99379.41
2022-09-25T17:38:47.023Z,99384.41
2022-09-25T17:41:29.805Z,99391.97
2022-09-25T17:43:57.214Z,99378.38
2022-09-25T17:46:26.783Z,99386.28
2022-09-25T17:48:55.004Z,99388.72
2022-09-25T17:51:24.947Z,99387.19
2022-09-25T17:53:53.641Z,99388.00
2022-09-25T17:56:21.042Z,99386.03
2022-09-25T17:58:48.517Z,99389.84
2022-09-25T18:01:24.571Z,99376.13
2022-09-25T18:03:54.661Z,99374.25
2022-09-25T18:06:22.587Z,99376.69
2022-09-25T18:08:51.225Z,99382.09
2022-09-25T18:11:19.645Z,99378.78
2022-09-25T18:13:47.405Z,99379.25
2022-09-25T18:16:18.074Z,99382.56
2022-09-25T18:19:04.901Z,99378.16
2022-09-25T18:21:52.728Z,99373.91
2022-09-25T18:24:20.390Z,99377.03
2022-09-25T18:26:48.015Z,99378.94
2022-09-25T18:29:17.007Z,99387.75
2022-09-25T18:31:46.069Z,99380.69
2022-09-25T18:34:14.636Z,99382.50
2022-09-25T18:36:42.698Z,99381.16
2022-09-25T18:39:10.477Z,99384.16
2022-09-25T18:41:38.899Z,99379.75
2022-09-25T18:44:07.358Z,99380.41
2022-09-25T18:46:37.798Z,99393.28
2022-09-25T18:49:06.134Z,99389.22
2022-09-25T18:51:34.429Z,99383.63
2022-09-25T18:54:03.382Z,99387.28
2022-09-25T18:56:32.152Z,99387.88
2022-09-25T18:59:00.059Z,99385.88
2022-09-25T19:01:27.994Z,99392.47
2022-09-25T19:03:55.434Z,99381.63
2022-09-25T19:06:22.778Z,99376.25
2022-09-25T19:08:56.113Z,99371.59
2022-09-25T19:11:24.854Z,99376.63
2022-09-25T19:13:54.666Z,99373.47
2022-09-25T19:16:22.753Z,99380.47
2022-09-25T19:18:50.448Z,99366.59
2022-09-25T19:21:22.915Z,99364.22
2022-09-25T19:23:50.593Z,99364.28
2022-09-25T19:26:22.482Z,99361.16
2022-09-25T19:28:49.905Z,99368.59
2022-09-25T19:31:23.738Z,99361.94
2022-09-25T19:33:52.313Z,99363.31
2022-09-25T19:36:26.682Z,99352.31
2022-09-25T19:38:54.398Z,99356.97
2022-09-25T19:41:28.141Z,99345.00
2022-09-25T19:43:57.309Z,99354.44
2022-09-25T19:46:26.790Z,99361.66
2022-09-25T19:48:54.605Z,99359.00
2022-09-25T19:51:25.528Z,99364.12
2022-09-25T19:53:54.768Z,99364.16
2022-09-25T19:56:22.100Z,99362.44
2022-09-25T19:58:50.995Z,99359.28
2022-09-25T20:01:26.880Z,99352.66
2022-09-25T20:03:58.106Z,99361.22
2022-09-25T20:06:26.642Z,99354.22
2022-09-25T20:08:57.973Z,99348.69
2022-09-25T20:11:25.714Z,99349.84
2022-09-25T20:13:54.052Z,99348.78
2022-09-25T20:16:25.183Z,99346.25
2022-09-25T20:18:58.201Z,99355.03
2022-09-25T20:21:26.593Z,99357.19
2022-09-25T20:23:57.002Z,99365.44
2022-09-25T20:26:25.273Z,99367.28
2022-09-25T20:29:14.077Z,99364.50
2022-09-25T20:31:45.591Z,99365.44
2022-09-25T20:34:15.243Z,99375.13
2022-09-25T20:36:42.994Z,99361.81
2022-09-25T20:39:10.594Z,99355.28
2022-09-25T20:41:38.024Z,99360.19
2022-09-25T20:44:06.312Z,99356.78
2022-09-25T20:46:33.921Z,99359.59
2022-09-25T20:49:02.138Z,99344.78
2022-09-25T20:51:32.496Z,99339.06
2022-09-25T20:54:02.465Z,99341.56
2022-09-25T20:56:31.439Z,99333.34
2022-09-25T20:59:00.057Z,99332.91
2022-09-25T21:01:34.683Z,99340.41
2022-09-25T21:04:04.824Z,99338.66
2022-09-25T21:06:33.622Z,99347.53
2022-09-25T21:09:03.260Z,99347.03
2022-09-25T21:11:32.107Z,99346.13
2022-09-25T21:14:02.572Z,99332.75
2022-09-25T21:16:31.530Z,99334.03
2022-09-25T21:19:04.411Z,99331.03
2022-09-25T21:21:33.260Z,99322.47
2022-09-25T21:24:02.395Z,99316.97
2022-09-25T21:26:31.794Z,99319.41
2022-09-25T21:29:02.202Z,99310.50
2022-09-25T21:31:36.622Z,99307.59
2022-09-25T21:34:10.037Z,99307.78
2022-09-25T21:36:38.963Z,99303.31
2022-09-25T21:39:07.069Z,99299.03
2022-09-25T21:41:34.723Z,99296.88
2022-09-25T21:44:05.788Z,99288.47
2022-09-25T21:46:34.868Z,99282.81
2022-09-25T21:49:04.842Z,99283.25
2022-09-25T21:51:34.984Z,99282.09
2022-09-25T21:54:02.880Z,99286.53
2022-09-25T21:56:31.566Z,99286.72
2022-09-25T21:59:04.358Z,99291.28
2022-09-25T22:01:37.356Z,99294.22
2022-09-25T22:04:05.141Z,99280.47
2022-09-25T22:06:34.348Z,99276.22
2022-09-25T22:09:05.358Z,99278.44
2022-09-25T22:11:33.665Z,99279.06
2022-09-25T22:14:01.872Z,99272.34
2022-09-25T22:16:31.787Z,99262.13
2022-09-25T22:19:11.181Z,99262.47
2022-09-25T22:21:39.639Z,99264.06
2022-09-25T22:24:07.549Z,99258.16
2022-09-25T22:26:37.086Z,99267.59
2022-09-25T22:29:05.183Z,99274.66
2022-09-25T22:31:33.925Z,99268.84
2022-09-25T22:34:04.459Z,99258.22
2022-09-25T22:36:33.998Z,99252.94
2022-09-25T22:39:02.307Z,99257.94
2022-09-25T22:41:29.665Z,99245.44
2022-09-25T22:44:00.537Z,99259.50
2022-09-25T22:46:28.759Z,99257.53
2022-09-25T22:48:56.499Z,99253.56
2022-09-25T22:51:25.471Z,99253.78
2022-09-25T22:53:54.085Z,99254.56
2022-09-25T22:56:32.257Z,99244.69
2022-09-25T22:59:02.663Z,99239.47
2022-09-25T23:01:31.770Z,99235.16
2022-09-25T23:04:01.531Z,99239.56
2022-09-25T23:06:31.297Z,99227.25
2022-09-25T23:09:01.735Z,99231.25
2022-09-25T23:11:29.790Z,99228.06
2022-09-25T23:14:06.135Z,99222.50
2022-09-25T23:16:34.630Z,99221.06
2022-09-25T23:19:02.289Z,99206.88
2022-09-25T23:21:30.657Z,99200.97
2022-09-25T23:24:00.931Z,99200.63
2022-09-25T23:26:29.127Z,99194.47
2022-09-25T23:28:57.858Z,99193.97
2022-09-25T23:31:26.035Z,99197.19
2022-09-25T23:33:53.436Z,99193.69
2022-09-25T23:36:23.247Z,99200.37
2022-09-25T23:38:52.183Z,99186.50
2022-09-25T23:41:25.499Z,99189.69
2022-09-25T23:43:53.963Z,99192.84
2022-09-25T23:46:22.819Z,99189.44
2022-09-25T23:48:50.751Z,99185.16
2022-09-25T23:51:19.364Z,99184.41
2022-09-25T23:53:46.765Z,99180.75
2022-09-25T23:56:16.227Z,99181.44
2022-09-25T23:58:44.076Z,99176.91
